createdAt,value
2019-05-14T00:02:21.427Z,10.13
2019-05-14T00:04:51.132Z,13.33
2019-05-14T00:07:17.993Z,8.43
2019-05-14T00:09:45.325Z,8.63
2019-05-14T00:12:12.677Z,11.23
2019-05-14T00:14:43.147Z,13.87
2019-05-14T00:17:11.102Z,11.47
2019-05-14T00:19:38.013Z,13.20
2019-05-14T00:22:05.328Z,14.10
2019-05-14T00:24:32.665Z,15.47
2019-05-14T00:27:02.015Z,17.47
2019-05-14T00:29:29.020Z,14.60
2019-05-14T00:31:56.633Z,14.03
2019-05-14T00:34:24.300Z,15.37
2019-05-14T00:36:52.429Z,14.00
2019-05-14T00:39:21.364Z,12.80
2019-05-14T00:41:51.081Z,12.77
2019-05-14T00:44:17.788Z,14.43
2019-05-14T00:46:45.144Z,14.93
2019-05-14T00:49:12.520Z,16.63
2019-05-14T00:51:41.313Z,16.77
2019-05-14T00:54:10.968Z,19.27
2019-05-14T00:56:37.740Z,15.20
2019-05-14T00:59:05.190Z,15.63
2019-05-14T01:01:32.589Z,15.60
2019-05-14T01:04:01.293Z,14.27
2019-05-14T01:06:31.282Z,15.33
2019-05-14T01:08:58.115Z,17.27
2019-05-14T01:11:25.444Z,17.90
2019-05-14T01:13:52.808Z,14.10
2019-05-14T01:16:22.234Z,15.63
2019-05-14T01:18:51.205Z,13.43
2019-05-14T01:21:18.168Z,13.77
2019-05-14T01:23:45.500Z,15.50
2019-05-14T01:26:12.845Z,20.13
2019-05-14T01:28:41.567Z,13.07
2019-05-14T01:31:11.213Z,16.23
2019-05-14T01:33:38.092Z,16.87
2019-05-14T01:36:05.400Z,18.90
2019-05-14T01:38:32.752Z,15.13
2019-05-14T01:41:01.823Z,15.20
2019-05-14T01:43:31.480Z,15.70
2019-05-14T01:45:58.538Z,14.73
2019-05-14T01:48:25.915Z,18.63
2019-05-14T01:50:53.210Z,17.80
2019-05-14T01:53:22.028Z,16.80
2019-05-14T01:55:51.787Z,15.87
2019-05-14T01:58:18.685Z,16.47
2019-05-14T02:00:46.071Z,18.03
2019-05-14T02:03:13.420Z,14.27
2019-05-14T02:05:41.649Z,15.10
2019-05-14T02:08:09.180Z,16.43
2019-05-14T02:10:36.526Z,13.40
2019-05-14T02:13:04.333Z,14.87
2019-05-14T02:15:39.587Z,13.33
2019-05-14T02:18:02.299Z,14.90
2019-05-14T02:20:31.926Z,16.30
2019-05-14T02:22:58.835Z,14.67
2019-05-14T02:25:26.221Z,15.33
2019-05-14T02:27:53.623Z,15.80
2019-05-14T02:30:28.448Z,16.70
2019-05-14T02:32:50.077Z,14.90
2019-05-14T02:35:20.195Z,14.57
2019-05-14T02:37:50.199Z,14.97
2019-05-14T02:40:15.478Z,11.67
2019-05-14T02:42:43.192Z,14.10
2019-05-14T02:45:10.543Z,16.77
2019-05-14T02:47:39.720Z,15.93
2019-05-14T02:50:09.895Z,13.53
2019-05-14T02:52:36.129Z,16.67
2019-05-14T02:55:04.243Z,17.70
2019-05-14T02:57:31.663Z,17.50
2019-05-14T02:59:59.660Z,19.17
2019-05-14T03:02:29.681Z,17.43
2019-05-14T03:04:59.020Z,16.33
2019-05-14T03:07:25.183Z,20.10
2019-05-14T03:09:52.531Z,15.90
2019-05-14T03:12:19.877Z,16.43
2019-05-14T03:14:49.818Z,16.53
2019-05-14T03:17:19.563Z,17.40
2019-05-14T03:19:45.279Z,13.97
2019-05-14T03:22:12.599Z,14.90
2019-05-14T03:24:40.115Z,16.67
2019-05-14T03:27:09.679Z,16.97
2019-05-14T03:29:39.841Z,16.30
2019-05-14T03:32:11.955Z,16.93
2019-05-14T03:34:35.284Z,17.83
2019-05-14T03:37:03.918Z,16.43
2019-05-14T03:39:31.688Z,16.90
2019-05-14T03:41:59.277Z,17.87
2019-05-14T03:44:29.196Z,18.37
2019-05-14T03:47:00.575Z,20.03
2019-05-14T03:49:24.680Z,16.57
2019-05-14T03:51:52.103Z,21.80
2019-05-14T03:54:19.652Z,19.00
2019-05-14T03:56:49.701Z,17.20
2019-05-14T03:59:16.165Z,25.17
2019-05-14T04:01:43.577Z,23.33
2019-05-14T04:04:11.156Z,19.50
2019-05-14T04:06:40.332Z,19.53
2019-05-14T04:09:09.652Z,18.67
2019-05-14T04:11:39.646Z,19.30
2019-05-14T04:14:05.510Z,23.67
2019-05-14T04:16:32.867Z,22.83
2019-05-14T04:19:00.193Z,23.40
2019-05-14T04:21:29.721Z,21.07
2019-05-14T04:23:59.417Z,22.70
2019-05-14T04:26:25.939Z,25.27
2019-05-14T04:28:53.262Z,21.77
2019-05-14T04:31:20.676Z,25.23
2019-05-14T04:33:49.996Z,22.37
2019-05-14T04:36:19.522Z,24.37
2019-05-14T04:38:51.448Z,27.03
2019-05-14T04:41:19.220Z,27.90
2019-05-14T04:43:44.734Z,25.63
2019-05-14T04:46:12.085Z,27.33
2019-05-14T04:48:43.441Z,25.90
2019-05-14T04:51:09.809Z,32.53
2019-05-14T04:53:39.293Z,28.87
2019-05-14T04:56:08.792Z,26.47
2019-05-14T04:58:35.778Z,27.50
2019-05-14T05:01:03.135Z,25.23
2019-05-14T05:03:31.700Z,18.87
2019-05-14T05:05:59.455Z,17.33
2019-05-14T05:08:30.022Z,19.03
2019-05-14T05:10:55.856Z,16.27
2019-05-14T05:13:23.235Z,15.67
2019-05-14T05:15:50.543Z,20.70
2019-05-14T05:18:18.772Z,21.30
2019-05-14T05:20:46.360Z,15.63
2019-05-14T05:23:13.723Z,21.40
2019-05-14T05:25:41.081Z,13.00
2019-05-14T05:28:08.842Z,16.13
2019-05-14T05:30:38.387Z,13.07
2019-05-14T05:33:05.369Z,21.20
2019-05-14T05:35:32.716Z,18.90
2019-05-14T05:38:00.113Z,13.10
2019-05-14T05:40:28.793Z,16.63
2019-05-14T05:42:58.070Z,17.03
2019-05-14T05:45:25.298Z,19.70
2019-05-14T05:47:57.464Z,13.90
2019-05-14T05:50:22.024Z,17.23
2019-05-14T05:52:51.720Z,20.43
2019-05-14T05:55:19.146Z,16.17
2019-05-14T05:57:49.039Z,16.57
2019-05-14T06:00:18.920Z,13.57
2019-05-14T06:02:48.770Z,12.97
2019-05-14T06:05:15.433Z,16.03
2019-05-14T06:07:42.816Z,17.17
2019-05-14T06:10:10.289Z,13.07
2019-05-14T06:12:38.778Z,11.60
2019-05-14T06:15:08.742Z,10.13
2019-05-14T06:17:35.533Z,12.97
2019-05-14T06:20:03.207Z,10.50
2019-05-14T06:22:30.617Z,11.77
2019-05-14T06:24:58.620Z,12.80
2019-05-14T06:27:28.557Z,14.57
2019-05-14T06:29:55.471Z,9.47
2019-05-14T06:32:22.855Z,11.57
2019-05-14T06:34:50.256Z,13.37
2019-05-14T06:37:19.185Z,12.10
2019-05-14T06:39:48.447Z,9.33
2019-05-14T06:42:15.755Z,6.67
2019-05-14T06:44:43.104Z,7.57
2019-05-14T06:47:10.539Z,12.03
2019-05-14T06:49:38.499Z,9.27
2019-05-14T06:52:08.606Z,8.63
2019-05-14T06:54:35.083Z,7.77
2019-05-14T06:57:02.413Z,10.77
2019-05-14T06:59:30.088Z,9.97
2019-05-14T07:01:58.078Z,9.43
2019-05-14T07:04:25.679Z,10.67
2019-05-14T07:06:53.733Z,7.27
2019-05-14T07:09:21.209Z,8.77
2019-05-14T07:11:49.301Z,15.00
2019-05-14T07:14:18.774Z,7.10
2019-05-14T07:16:48.298Z,8.70
2019-05-14T07:19:15.957Z,7.40
2019-05-14T07:21:49.145Z,7.93
2019-05-14T07:24:19.292Z,6.70
2019-05-14T07:26:45.933Z,7.17
2019-05-14T07:29:13.271Z,7.77
2019-05-14T07:31:40.591Z,3.50
2019-05-14T07:34:08.883Z,6.63
2019-05-14T07:36:38.519Z,5.97
2019-05-14T07:39:09.085Z,6.67
2019-05-14T07:41:35.617Z,6.97
2019-05-14T07:44:03.007Z,3.20
2019-05-14T07:46:30.376Z,3.17
2019-05-14T07:49:07.170Z,5.00
2019-05-14T07:51:28.248Z,2.60
2019-05-14T07:53:57.855Z,2.67
2019-05-14T07:56:25.204Z,1.93
2019-05-14T07:58:52.612Z,1.80
2019-05-14T08:01:19.948Z,2.93
2019-05-14T08:03:48.774Z,3.67
2019-05-14T08:06:18.686Z,2.63
2019-05-14T08:08:45.251Z,2.97
2019-05-14T08:11:12.681Z,3.93
2019-05-14T08:13:42.556Z,3.23
2019-05-14T08:16:09.165Z,3.97
2019-05-14T08:18:39.269Z,3.50
2019-05-14T08:21:05.607Z,5.07
2019-05-14T08:23:33.127Z,4.47
2019-05-14T08:26:03.662Z,6.57
2019-05-14T08:28:29.882Z,4.73
2019-05-14T08:30:58.520Z,3.60
2019-05-14T08:33:26.044Z,2.53
2019-05-14T08:35:53.384Z,4.87
2019-05-14T08:38:20.844Z,2.10
2019-05-14T08:40:48.869Z,1.63
2019-05-14T08:43:18.485Z,1.90
2019-05-14T08:45:45.575Z,1.50
2019-05-14T08:48:13.006Z,2.67
2019-05-14T08:50:40.306Z,2.87
2019-05-14T08:53:09.100Z,1.03
2019-05-14T08:55:38.221Z,3.47
2019-05-14T08:58:11.067Z,1.40
2019-05-14T09:00:34.651Z,2.03
2019-05-14T09:03:03.252Z,1.33
2019-05-14T09:05:30.694Z,6.73
2019-05-14T09:07:58.282Z,1.53
2019-05-14T09:10:28.398Z,1.70
2019-05-14T09:12:54.944Z,2.33
2019-05-14T09:15:22.282Z,1.63
2019-05-14T09:17:50.017Z,2.00
2019-05-14T09:20:18.679Z,3.50
2019-05-14T09:22:48.820Z,2.80
2019-05-14T09:25:18.979Z,6.47
2019-05-14T09:27:45.807Z,2.93
2019-05-14T09:30:13.138Z,3.03
2019-05-14T09:32:40.443Z,6.63
2019-05-14T09:35:09.783Z,6.77
2019-05-14T09:37:39.306Z,2.70
2019-05-14T09:40:08.639Z,6.63
2019-05-14T09:42:35.430Z,2.73
2019-05-14T09:45:02.930Z,2.70
2019-05-14T09:47:30.453Z,6.57
2019-05-14T09:49:59.716Z,6.43
2019-05-14T09:52:29.195Z,5.40
2019-05-14T09:54:58.430Z,3.90
2019-05-14T09:57:24.749Z,2.33
2019-05-14T09:59:52.097Z,3.30
2019-05-14T10:02:19.427Z,2.60
2019-05-14T10:04:49.047Z,3.43
2019-05-14T10:07:16.061Z,3.80
2019-05-14T10:09:43.460Z,2.57
2019-05-14T10:12:10.797Z,3.67
2019-05-14T10:14:39.256Z,3.83
2019-05-14T10:17:06.955Z,5.23
2019-05-14T10:19:34.393Z,7.37
2019-05-14T10:22:01.746Z,5.30
2019-05-14T10:24:29.334Z,6.70
2019-05-14T10:26:58.550Z,4.97
2019-05-14T10:29:25.669Z,5.00
2019-05-14T10:31:53.069Z,5.97
2019-05-14T10:34:20.381Z,5.43
2019-05-14T10:36:47.826Z,5.03
2019-05-14T10:39:15.208Z,3.70
2019-05-14T10:41:42.539Z,5.23
2019-05-14T10:44:09.885Z,8.30
2019-05-14T10:46:38.391Z,5.20
2019-05-14T10:49:16.303Z,5.10
2019-05-14T10:51:34.887Z,4.63
2019-05-14T10:54:17.856Z,4.60
2019-05-14T10:56:31.175Z,4.77
2019-05-14T10:58:58.595Z,4.23
2019-05-14T11:01:28.244Z,7.90
2019-05-14T11:03:55.001Z,6.60
2019-05-14T11:06:22.331Z,6.33
2019-05-14T11:08:49.643Z,9.13
2019-05-14T11:11:18.535Z,10.40
2019-05-14T11:13:45.989Z,7.20
2019-05-14T11:16:13.337Z,7.77
2019-05-14T11:18:40.731Z,8.43
2019-05-14T11:21:19.769Z,7.60
2019-05-14T11:23:38.665Z,9.00
2019-05-14T11:26:06.243Z,7.27
2019-05-14T11:28:33.557Z,9.17
2019-05-14T11:31:00.899Z,10.97
2019-05-14T11:33:29.660Z,7.93
2019-05-14T11:35:58.451Z,7.90
2019-05-14T11:38:33.902Z,6.57
2019-05-14T11:40:54.912Z,7.03
2019-05-14T11:43:22.276Z,7.57
2019-05-14T11:45:49.593Z,6.70
2019-05-14T11:48:19.354Z,9.80
2019-05-14T11:50:48.886Z,8.57
2019-05-14T11:53:15.367Z,8.57
2019-05-14T11:55:42.704Z,8.57
2019-05-14T11:58:10.045Z,9.80
2019-05-14T12:00:38.693Z,8.97
2019-05-14T12:03:09.047Z,11.80
2019-05-14T12:05:35.484Z,10.03
2019-05-14T12:08:02.902Z,10.70
2019-05-14T12:10:30.226Z,12.23
2019-05-14T12:12:58.422Z,10.10
2019-05-14T12:15:25.938Z,11.80
2019-05-14T12:17:53.311Z,12.43
2019-05-14T12:20:20.635Z,12.33
2019-05-14T12:22:48.734Z,14.93
2019-05-14T12:25:18.615Z,14.13
2019-05-14T12:27:49.299Z,13.93
2019-05-14T12:30:15.484Z,13.57
2019-05-14T12:32:43.156Z,14.00
2019-05-14T12:35:10.436Z,12.90
2019-05-14T12:37:38.715Z,14.33
2019-05-14T12:40:08.781Z,15.27
2019-05-14T12:42:35.531Z,14.97
2019-05-14T12:45:03.355Z,15.47
2019-05-14T12:47:30.698Z,18.60
2019-05-14T12:49:58.735Z,15.87
2019-05-14T12:52:26.372Z,12.13
2019-05-14T12:54:53.746Z,12.70
2019-05-14T12:57:21.069Z,10.60
2019-05-14T12:59:48.772Z,9.13
2019-05-14T13:02:18.797Z,8.63
2019-05-14T13:04:45.598Z,10.53
2019-05-14T13:07:12.944Z,9.33
2019-05-14T13:09:40.246Z,11.33
2019-05-14T13:12:11.271Z,14.43
2019-05-14T13:14:39.206Z,14.03
2019-05-14T13:17:05.586Z,7.57
2019-05-14T13:19:32.994Z,8.00
2019-05-14T13:22:13.087Z,8.07
2019-05-14T13:24:29.380Z,9.27
2019-05-14T13:26:58.827Z,9.37
2019-05-14T13:29:28.757Z,12.50
2019-05-14T13:31:54.689Z,12.77
2019-05-14T13:34:22.089Z,11.23
2019-05-14T13:36:49.701Z,16.30
2019-05-14T13:39:19.209Z,10.30
2019-05-14T13:41:48.518Z,12.30
2019-05-14T13:44:24.074Z,10.57
2019-05-14T13:46:44.036Z,14.80
2019-05-14T13:49:11.397Z,16.47
2019-05-14T13:51:38.973Z,15.93
2019-05-14T13:54:08.557Z,15.97
2019-05-14T13:56:35.335Z,17.97
2019-05-14T13:59:02.768Z,16.27
2019-05-14T14:01:30.115Z,14.27
2019-05-14T14:04:06.364Z,12.23
2019-05-14T14:06:26.462Z,14.90
2019-05-14T14:08:53.780Z,12.97
2019-05-14T14:11:21.314Z,16.13
2019-05-14T14:13:49.093Z,23.53
2019-05-14T14:16:21.158Z,19.13
2019-05-14T14:18:50.133Z,23.57
2019-05-14T14:21:19.652Z,21.40
2019-05-14T14:23:49.389Z,14.00
2019-05-14T14:26:18.440Z,16.20
2019-05-14T14:28:45.270Z,18.37
2019-05-14T14:31:12.685Z,13.67
2019-05-14T14:33:40.053Z,15.73
2019-05-14T14:36:07.465Z,11.20
2019-05-14T14:38:34.858Z,16.47
2019-05-14T14:41:02.179Z,21.10
2019-05-14T14:43:29.717Z,13.77
2019-05-14T14:45:59.412Z,17.37
2019-05-14T14:48:26.283Z,27.00
2019-05-14T14:50:53.959Z,76.67
2019-05-14T14:53:39.743Z,37.13
2019-05-14T14:55:50.313Z,36.27
2019-05-14T14:58:19.994Z,33.90
2019-05-14T15:00:48.686Z,32.70
2019-05-14T15:03:15.706Z,21.57
2019-05-14T15:05:43.117Z,21.90
2019-05-14T15:08:10.550Z,29.60
2019-05-14T15:10:39.506Z,34.13
2019-05-14T15:13:09.273Z,40.10
2019-05-14T15:15:36.124Z,29.20
2019-05-14T15:18:03.469Z,16.77
2019-05-14T15:20:32.726Z,27.70
2019-05-14T15:23:00.186Z,16.17
2019-05-14T15:25:28.937Z,21.90
2019-05-14T15:27:58.435Z,30.63
2019-05-14T15:30:28.568Z,32.90
2019-05-14T15:32:54.789Z,29.30
2019-05-14T15:35:22.250Z,30.53
2019-05-14T15:37:49.593Z,31.57
2019-05-14T15:40:22.093Z,27.80
2019-05-14T15:42:45.921Z,35.40
2019-05-14T15:45:13.253Z,38.27
2019-05-14T15:47:40.590Z,39.83
2019-05-14T15:50:09.182Z,38.17
2019-05-14T15:52:39.194Z,41.63
2019-05-14T15:55:06.024Z,49.87
2019-05-14T15:57:33.379Z,34.90
2019-05-14T16:00:01.120Z,20.23
2019-05-14T16:02:29.604Z,21.43
2019-05-14T16:04:59.115Z,20.17
2019-05-14T16:07:26.143Z,20.30
2019-05-14T16:09:53.472Z,14.20
2019-05-14T16:12:20.775Z,21.97
2019-05-14T16:14:48.980Z,16.23
2019-05-14T16:17:23.597Z,14.80
2019-05-14T16:19:45.867Z,18.63
2019-05-14T16:22:13.842Z,18.97
2019-05-14T16:24:55.980Z,13.30
2019-05-14T16:27:10.166Z,13.30
2019-05-14T16:29:45.129Z,16.80
2019-05-14T16:32:08.418Z,17.77
2019-05-14T16:34:40.229Z,18.37
2019-05-14T16:37:04.920Z,14.53
2019-05-14T16:39:32.261Z,15.50
2019-05-14T16:41:59.619Z,14.73
2019-05-14T16:44:28.270Z,21.70
2019-05-14T16:46:58.457Z,17.27
2019-05-14T16:49:24.855Z,16.83
2019-05-14T16:51:52.296Z,16.23
2019-05-14T16:54:19.604Z,17.97
2019-05-14T16:56:48.324Z,16.63
2019-05-14T16:59:18.477Z,20.33
2019-05-14T17:01:44.795Z,13.97
2019-05-14T17:04:12.140Z,18.07
2019-05-14T17:06:39.485Z,18.27
2019-05-14T17:09:08.755Z,22.37
2019-05-14T17:11:35.810Z,16.03
2019-05-14T17:14:03.234Z,15.70
2019-05-14T17:16:30.592Z,17.80
2019-05-14T17:18:59.114Z,16.23
2019-05-14T17:21:26.662Z,21.63
2019-05-14T17:23:54.018Z,16.07
2019-05-14T17:26:21.332Z,19.20
2019-05-14T17:28:48.973Z,26.70
2019-05-14T17:31:18.768Z,25.13
2019-05-14T17:33:45.592Z,28.13
2019-05-14T17:36:12.975Z,38.30
2019-05-14T17:38:40.340Z,52.77
2019-05-14T17:41:09.551Z,29.10
2019-05-14T17:43:39.073Z,24.50
2019-05-14T17:46:05.666Z,28.43
2019-05-14T17:48:33.049Z,27.20
2019-05-14T17:51:00.427Z,19.97
2019-05-14T17:53:29.150Z,16.20
2019-05-14T17:55:59.133Z,21.43
2019-05-14T17:58:25.592Z,21.27
2019-05-14T18:00:53.055Z,18.00
2019-05-14T18:03:20.389Z,16.17
2019-05-14T18:05:47.777Z,20.33
2019-05-14T18:08:15.120Z,18.10
2019-05-14T18:10:42.466Z,16.33
2019-05-14T18:13:09.846Z,23.50
2019-05-14T18:15:39.282Z,18.03
2019-05-14T18:18:08.762Z,20.80
2019-05-14T18:20:35.189Z,22.80
2019-05-14T18:23:02.586Z,19.63
2019-05-14T18:25:29.945Z,20.53
2019-05-14T18:27:57.271Z,25.07
2019-05-14T18:30:24.682Z,24.90
2019-05-14T18:32:51.998Z,20.37
2019-05-14T18:35:19.325Z,17.93
2019-05-14T18:37:48.230Z,21.10
2019-05-14T18:40:15.756Z,20.53
2019-05-14T18:42:43.108Z,17.97
2019-05-14T18:45:10.448Z,18.93
2019-05-14T18:47:39.883Z,16.93
2019-05-14T18:50:09.014Z,17.60
2019-05-14T18:52:39.473Z,18.37
2019-05-14T18:55:05.613Z,21.13
2019-05-14T18:57:32.972Z,18.47
2019-05-14T19:00:00.302Z,19.10
2019-05-14T19:02:29.261Z,14.50
2019-05-14T19:04:57.988Z,14.47
2019-05-14T19:07:28.489Z,15.87
2019-05-14T19:09:54.715Z,13.60
2019-05-14T19:12:22.326Z,11.67
2019-05-14T19:14:49.740Z,10.30
2019-05-14T19:17:18.672Z,10.37
2019-05-14T19:19:48.076Z,12.07
2019-05-14T19:22:15.281Z,10.87
2019-05-14T19:24:42.639Z,10.37
2019-05-14T19:27:09.924Z,12.60
2019-05-14T19:29:38.754Z,13.83
2019-05-14T19:32:08.250Z,12.57
2019-05-14T19:34:38.004Z,17.33
2019-05-14T19:37:04.552Z,17.63
2019-05-14T19:39:31.875Z,24.97
2019-05-14T19:41:59.225Z,21.80
2019-05-14T19:44:26.585Z,17.73
2019-05-14T19:46:53.942Z,18.80
2019-05-14T19:49:21.309Z,19.80
2019-05-14T19:51:48.729Z,22.37
2019-05-14T19:54:19.195Z,18.90
2019-05-14T19:56:53.183Z,18.00
2019-05-14T19:59:14.462Z,17.17
2019-05-14T20:01:41.912Z,18.40
2019-05-14T20:04:09.687Z,15.70
2019-05-14T20:06:38.820Z,17.47
2019-05-14T20:09:06.389Z,12.60
2019-05-14T20:11:33.770Z,14.13
2019-05-14T20:14:01.101Z,11.47
2019-05-14T20:16:28.663Z,15.80
2019-05-14T20:18:57.943Z,15.03
2019-05-14T20:21:24.989Z,14.70
2019-05-14T20:23:52.437Z,13.87
2019-05-14T20:26:20.235Z,12.83
2019-05-14T20:28:48.403Z,17.50
2019-05-14T20:31:17.966Z,21.07
2019-05-14T20:33:44.875Z,17.20
2019-05-14T20:36:12.207Z,17.57
2019-05-14T20:38:39.519Z,19.17
2019-05-14T20:41:08.654Z,18.70
2019-05-14T20:43:38.306Z,12.83
2019-05-14T20:46:05.135Z,18.03
2019-05-14T20:48:32.445Z,20.13
2019-05-14T20:50:59.795Z,16.13
2019-05-14T20:53:29.105Z,10.77
2019-05-14T20:55:58.453Z,16.73
2019-05-14T20:58:25.185Z,16.50
2019-05-14T21:00:52.578Z,16.67
2019-05-14T21:03:19.885Z,16.37
2019-05-14T21:05:49.167Z,19.63
2019-05-14T21:08:16.203Z,15.40
2019-05-14T21:10:43.568Z,22.47
2019-05-14T21:13:10.901Z,18.13
2019-05-14T21:15:39.177Z,16.77
2019-05-14T21:18:08.391Z,17.53
2019-05-14T21:20:35.709Z,19.77
2019-05-14T21:23:03.090Z,15.63
2019-05-14T21:25:30.403Z,13.60
2019-05-14T21:27:58.877Z,13.77
2019-05-14T21:30:26.262Z,10.87
2019-05-14T21:32:53.595Z,10.80
2019-05-14T21:35:21.231Z,12.73
2019-05-14T21:37:51.502Z,11.67
2019-05-14T21:40:18.639Z,22.10
2019-05-14T21:42:48.594Z,8.60
2019-05-14T21:45:15.123Z,8.23
2019-05-14T21:47:42.428Z,12.40
2019-05-14T21:50:10.341Z,10.30
2019-05-14T21:52:39.290Z,9.73
2019-05-14T21:55:07.113Z,12.57
2019-05-14T21:57:34.452Z,12.63
2019-05-14T22:00:01.849Z,11.17
2019-05-14T22:02:30.555Z,9.00
2019-05-14T22:20:23.814Z,9.87
2019-05-14T22:22:51.202Z,10.13
2019-05-14T22:25:19.118Z,10.30
2019-05-14T22:27:48.391Z,8.73
2019-05-14T22:30:18.023Z,11.20
2019-05-14T22:32:44.635Z,13.80
2019-05-14T22:35:11.950Z,12.37
2019-05-14T22:37:39.330Z,15.17
2019-05-14T22:40:06.748Z,20.63
2019-05-14T22:48:20.871Z,16.27
2019-05-14T22:50:48.744Z,17.17
2019-05-14T22:53:16.181Z,7.57
2019-05-14T22:55:43.521Z,5.40
2019-05-14T22:58:24.593Z,10.00
2019-05-14T23:00:47.455Z,12.40
2019-05-14T23:03:08.905Z,13.63
2019-05-14T23:05:36.233Z,9.13
2019-05-14T23:08:03.575Z,10.23
2019-05-14T23:10:31.012Z,15.77
2019-05-14T23:13:01.114Z,10.13
2019-05-14T23:15:28.952Z,18.20
2019-05-14T23:17:58.680Z,13.10
2019-05-14T23:20:25.517Z,11.23
2019-05-14T23:22:52.857Z,8.10
2019-05-14T23:25:20.219Z,7.70
2019-05-14T23:27:48.082Z,15.77
2019-05-14T23:30:17.306Z,9.83
2019-05-14T23:32:45.114Z,9.57
2019-05-14T23:35:12.487Z,11.43
2019-05-14T23:37:39.818Z,10.90
2019-05-14T23:40:08.543Z,14.53
2019-05-14T23:42:36.030Z,11.80
2019-05-14T23:45:03.949Z,12.13
2019-05-14T23:47:31.327Z,10.37
2019-05-14T23:49:58.690Z,12.57
2019-05-14T23:52:29.064Z,10.47
2019-05-14T23:54:55.068Z,11.97
2019-05-14T23:57:22.450Z,8.93
2019-05-14T23:59:49.786Z,9.73
